createdAt,value
2022-10-22T00:09:24.408Z,13.44
2022-10-22T00:24:24.501Z,13.39
2022-10-22T00:39:24.606Z,13.11
2022-10-22T00:54:24.700Z,13.05
2022-10-22T01:09:25.270Z,12.74
2022-10-22T01:24:24.853Z,12.74
2022-10-22T01:39:25.519Z,12.87
2022-10-22T01:54:27.855Z,12.85
2022-10-22T02:09:28.760Z,12.92
2022-10-22T02:24:32.449Z,12.90
2022-10-22T02:39:34.382Z,12.78
2022-10-22T02:54:34.878Z,12.59
2022-10-22T03:09:35.004Z,12.72
2022-10-22T03:24:36.893Z,12.54
2022-10-22T03:39:37.740Z,12.42
2022-10-22T03:54:40.160Z,12.45
2022-10-22T04:09:40.705Z,12.71
2022-10-22T04:24:40.889Z,12.39
2022-10-22T04:39:41.049Z,12.67
2022-10-22T04:54:41.529Z,12.52
2022-10-22T05:09:41.637Z,12.23
2022-10-22T05:24:41.285Z,12.09
2022-10-22T05:39:41.384Z,11.80
2022-10-22T05:54:42.014Z,11.75
2022-10-22T06:09:42.587Z,11.69
2022-10-22T06:24:45.083Z,11.95
2022-10-22T06:39:47.628Z,12.27
2022-10-22T06:54:48.264Z,12.54
2022-10-22T07:09:48.821Z,12.74
2022-10-22T07:24:50.145Z,13.00
2022-10-22T07:39:50.274Z,13.23
2022-10-22T07:54:49.863Z,13.51
2022-10-22T08:09:51.376Z,13.81
2022-10-22T08:24:51.985Z,14.21
2022-10-22T08:39:53.359Z,14.61
2022-10-22T08:54:52.969Z,15.19
2022-10-22T09:09:53.589Z,15.41
2022-10-22T09:24:55.433Z,15.72
2022-10-22T09:39:55.506Z,16.01
2022-10-22T09:54:55.650Z,16.01
2022-10-22T10:09:55.779Z,16.09
2022-10-22T10:24:55.960Z,16.27
2022-10-22T10:39:56.058Z,16.61
2022-10-22T10:54:56.680Z,16.88
2022-10-22T11:09:57.308Z,17.11
2022-10-22T11:24:57.910Z,18.63
2022-10-22T11:39:59.008Z,19.88
2022-10-22T11:55:00.157Z,20.59
2022-10-22T12:10:01.230Z,20.88
2022-10-22T12:25:02.355Z,20.98
2022-10-22T12:40:03.393Z,21.34
2022-10-22T12:55:03.085Z,22.05
2022-10-22T13:10:03.600Z,22.37
2022-10-22T13:25:03.711Z,22.72
2022-10-22T13:40:05.657Z,22.27
2022-10-22T13:55:08.416Z,21.53
2022-10-22T14:10:08.585Z,20.99
2022-10-22T14:25:08.681Z,20.66
2022-10-22T14:40:08.759Z,20.14
2022-10-22T14:55:08.921Z,19.88
2022-10-22T15:10:09.026Z,19.76
2022-10-22T15:25:09.172Z,18.98
2022-10-22T15:40:10.480Z,17.86
2022-10-22T15:55:10.837Z,16.97
2022-10-22T16:10:10.697Z,15.96
2022-10-22T16:25:12.178Z,15.34
2022-10-22T16:40:12.276Z,14.81
2022-10-22T16:55:13.622Z,14.29
2022-10-22T17:10:15.089Z,13.82
2022-10-22T17:25:15.122Z,13.49
2022-10-22T17:40:15.223Z,13.08
2022-10-22T17:55:15.317Z,13.42
2022-10-22T18:10:16.704Z,13.88
2022-10-22T18:25:17.091Z,14.33
2022-10-22T18:40:18.397Z,14.32
2022-10-22T18:55:19.849Z,14.20
2022-10-22T19:10:21.163Z,13.78
2022-10-22T19:25:22.570Z,13.49
2022-10-22T19:55:23.787Z,13.67
2022-10-22T20:10:23.905Z,14.33
2022-10-22T20:25:24.138Z,14.46
2022-10-22T20:40:24.865Z,14.51
2022-10-22T20:55:25.315Z,14.72
2022-10-22T21:10:30.202Z,14.83
2022-10-22T21:25:41.979Z,14.91
2022-10-22T21:40:43.958Z,14.55
2022-10-22T21:55:44.010Z,14.25
2022-10-22T22:10:44.988Z,13.91
2022-10-22T22:25:45.002Z,13.38
2022-10-22T22:40:46.425Z,12.86
2022-10-22T22:55:47.795Z,12.54
2022-10-22T23:10:47.963Z,12.16
2022-10-22T23:25:48.150Z,11.55
2022-10-22T23:40:49.484Z,11.37
2022-10-22T23:55:50.818Z,11.60
